sensor_id;sensor_type;location;lat;lon;timestamp;temperature;humidity
3644;DHT22;1838;50.742;7.158;2023-02-28T00:00:06;-1.60;99.90
3644;DHT22;1838;50.742;7.158;2023-02-28T00:02:42;-1.60;99.90
3644;DHT22;1838;50.742;7.158;2023-02-28T00:05:10;-1.60;99.90
3644;DHT22;1838;50.742;7.158;2023-02-28T00:07:36;-1.60;99.90
3644;DHT22;1838;50.742;7.158;2023-02-28T00:10:03;-1.60;99.90
3644;DHT22;1838;50.742;7.158;2023-02-28T00:12:29;-1.60;99.90
3644;DHT22;1838;50.742;7.158;2023-02-28T00:14:54;-1.60;99.90
3644;DHT22;1838;50.742;7.158;2023-02-28T00:17:20;-1.60;99.90
3644;DHT22;1838;50.742;7.158;2023-02-28T00:19:47;-1.60;99.90
3644;DHT22;1838;50.742;7.158;2023-02-28T00:22:14;-1.60;99.90
3644;DHT22;1838;50.742;7.158;2023-02-28T00:24:40;-1.50;99.90
3644;DHT22;1838;50.742;7.158;2023-02-28T00:27:05;-1.50;99.90
3644;DHT22;1838;50.742;7.158;2023-02-28T00:29:31;-1.50;99.90
3644;DHT22;1838;50.742;7.158;2023-02-28T00:32:00;-1.50;99.90
3644;DHT22;1838;50.742;7.158;2023-02-28T00:34:26;-1.50;99.90
3644;DHT22;1838;50.742;7.158;2023-02-28T00:36:52;-1.50;99.90
3644;DHT22;1838;50.742;7.158;2023-02-28T00:39:17;-1.60;99.90
3644;DHT22;1838;50.742;7.158;2023-02-28T00:41:43;-1.50;99.90
3644;DHT22;1838;50.742;7.158;2023-02-28T00:44:08;-1.60;99.90
3644;DHT22;1838;50.742;7.158;2023-02-28T00:46:34;-1.60;99.90
3644;DHT22;1838;50.742;7.158;2023-02-28T00:48:59;-1.70;99.90
3644;DHT22;1838;50.742;7.158;2023-02-28T00:58:55;-2.10;99.90
3644;DHT22;1838;50.742;7.158;2023-02-28T01:01:20;-2.20;99.90
3644;DHT22;1838;50.742;7.158;2023-02-28T01:03:46;-2.20;99.90
3644;DHT22;1838;50.742;7.158;2023-02-28T01:29:18;-1.70;99.90
3644;DHT22;1838;50.742;7.158;2023-02-28T01:31:44;-1.50;99.90
3644;DHT22;1838;50.742;7.158;2023-02-28T01:34:09;-1.40;99.90
3644;DHT22;1838;50.742;7.158;2023-02-28T01:36:35;-1.30;99.90
3644;DHT22;1838;50.742;7.158;2023-02-28T01:39:02;-1.20;99.90
3644;DHT22;1838;50.742;7.158;2023-02-28T01:41:31;-1.10;99.90
3644;DHT22;1838;50.742;7.158;2023-02-28T01:47:10;-1.00;99.90
3644;DHT22;1838;50.742;7.158;2023-02-28T01:49:36;-1.00;99.90
3644;DHT22;1838;50.742;7.158;2023-02-28T01:52:02;-0.90;99.90
3644;DHT22;1838;50.742;7.158;2023-02-28T01:54:31;-0.90;99.90
3644;DHT22;1838;50.742;7.158;2023-02-28T01:57:06;-1.00;99.90
3644;DHT22;1838;50.742;7.158;2023-02-28T01:59:40;-1.00;99.90
3644;DHT22;1838;50.742;7.158;2023-02-28T02:02:18;-1.00;99.90
3644;DHT22;1838;50.742;7.158;2023-02-28T02:07:21;-0.90;99.90
3644;DHT22;1838;50.742;7.158;2023-02-28T02:09:48;-1.00;99.90
3644;DHT22;1838;50.742;7.158;2023-02-28T02:12:33;-1.00;99.90
3644;DHT22;1838;50.742;7.158;2023-02-28T02:15:16;-1.00;99.90
3644;DHT22;1838;50.742;7.158;2023-02-28T02:17:45;-1.00;99.90
3644;DHT22;1838;50.742;7.158;2023-02-28T02:22:55;-1.00;99.90
3644;DHT22;1838;50.742;7.158;2023-02-28T02:28:22;-1.00;99.90
3644;DHT22;1838;50.742;7.158;2023-02-28T02:42:14;-1.00;99.90
3644;DHT22;1838;50.742;7.158;2023-02-28T02:44:44;-0.90;99.90
3644;DHT22;1838;50.742;7.158;2023-02-28T02:47:15;-0.90;99.90
3644;DHT22;1838;50.742;7.158;2023-02-28T02:49:55;-0.90;99.90
3644;DHT22;1838;50.742;7.158;2023-02-28T02:52:25;-0.90;99.90
3644;DHT22;1838;50.742;7.158;2023-02-28T02:54:55;-0.90;99.90
3644;DHT22;1838;50.742;7.158;2023-02-28T02:57:36;-0.80;99.90
3644;DHT22;1838;50.742;7.158;2023-02-28T03:00:04;-0.80;99.90
3644;DHT22;1838;50.742;7.158;2023-02-28T03:02:32;-0.80;99.90
3644;DHT22;1838;50.742;7.158;2023-02-28T03:05:02;-0.80;99.90
3644;DHT22;1838;50.742;7.158;2023-02-28T03:07:28;-0.80;99.90
3644;DHT22;1838;50.742;7.158;2023-02-28T03:09:55;-0.80;99.90
3644;DHT22;1838;50.742;7.158;2023-02-28T03:12:25;-0.80;99.90
3644;DHT22;1838;50.742;7.158;2023-02-28T03:17:47;-0.90;99.90
3644;DHT22;1838;50.742;7.158;2023-02-28T03:20:40;-1.00;99.90
3644;DHT22;1838;50.742;7.158;2023-02-28T03:23:20;-1.00;99.90
3644;DHT22;1838;50.742;7.158;2023-02-28T03:26:01;-1.10;99.90
3644;DHT22;1838;50.742;7.158;2023-02-28T03:28:49;-1.10;99.90
3644;DHT22;1838;50.742;7.158;2023-02-28T03:31:21;-1.30;99.90
3644;DHT22;1838;50.742;7.158;2023-02-28T03:33:59;-1.40;99.90
3644;DHT22;1838;50.742;7.158;2023-02-28T03:36:30;-1.50;99.90
3644;DHT22;1838;50.742;7.158;2023-02-28T03:39:03;-1.70;99.90
3644;DHT22;1838;50.742;7.158;2023-02-28T03:41:35;-1.70;99.90
3644;DHT22;1838;50.742;7.158;2023-02-28T03:44:18;-1.70;99.90
3644;DHT22;1838;50.742;7.158;2023-02-28T03:46:54;-1.80;99.90
3644;DHT22;1838;50.742;7.158;2023-02-28T03:49:26;-1.80;99.90
3644;DHT22;1838;50.742;7.158;2023-02-28T03:51:54;-1.80;99.90
3644;DHT22;1838;50.742;7.158;2023-02-28T03:54:28;-1.90;99.90
3644;DHT22;1838;50.742;7.158;2023-02-28T04:00:07;-2.00;99.90
3644;DHT22;1838;50.742;7.158;2023-02-28T04:02:34;-2.10;99.90
3644;DHT22;1838;50.742;7.158;2023-02-28T04:05:00;-2.20;99.90
3644;DHT22;1838;50.742;7.158;2023-02-28T04:07:29;-2.40;99.90
3644;DHT22;1838;50.742;7.158;2023-02-28T04:09:55;-2.50;99.90
3644;DHT22;1838;50.742;7.158;2023-02-28T04:12:20;-2.40;99.90
3644;DHT22;1838;50.742;7.158;2023-02-28T04:14:48;-2.50;99.90
3644;DHT22;1838;50.742;7.158;2023-02-28T04:17:14;-2.50;99.90
3644;DHT22;1838;50.742;7.158;2023-02-28T04:19:40;-2.50;99.90
3644;DHT22;1838;50.742;7.158;2023-02-28T04:22:05;-2.50;99.90
3644;DHT22;1838;50.742;7.158;2023-02-28T04:24:31;-2.50;99.90
3644;DHT22;1838;50.742;7.158;2023-02-28T04:26:57;-2.50;99.90
3644;DHT22;1838;50.742;7.158;2023-02-28T04:29:31;-2.60;99.90
3644;DHT22;1838;50.742;7.158;2023-02-28T04:32:00;-2.70;99.90
3644;DHT22;1838;50.742;7.158;2023-02-28T04:34:27;-2.70;99.90
3644;DHT22;1838;50.742;7.158;2023-02-28T04:36:54;-2.70;99.90
3644;DHT22;1838;50.742;7.158;2023-02-28T04:39:22;-2.80;99.90
3644;DHT22;1838;50.742;7.158;2023-02-28T04:41:48;-2.80;99.90
3644;DHT22;1838;50.742;7.158;2023-02-28T04:44:14;-2.80;99.90
3644;DHT22;1838;50.742;7.158;2023-02-28T04:46:40;-2.80;99.90
3644;DHT22;1838;50.742;7.158;2023-02-28T04:49:05;-2.90;99.90
3644;DHT22;1838;50.742;7.158;2023-02-28T04:51:31;-2.90;99.90
3644;DHT22;1838;50.742;7.158;2023-02-28T04:53:57;-3.00;99.90
3644;DHT22;1838;50.742;7.158;2023-02-28T04:56:22;-3.00;99.90
3644;DHT22;1838;50.742;7.158;2023-02-28T04:58:49;-3.00;99.90
3644;DHT22;1838;50.742;7.158;2023-02-28T05:01:33;-3.00;99.90
3644;DHT22;1838;50.742;7.158;2023-02-28T05:04:01;-2.90;99.90
3644;DHT22;1838;50.742;7.158;2023-02-28T05:06:28;-2.90;99.90
3644;DHT22;1838;50.742;7.158;2023-02-28T05:08:55;-2.80;99.90
3644;DHT22;1838;50.742;7.158;2023-02-28T05:11:23;-2.80;99.90
3644;DHT22;1838;50.742;7.158;2023-02-28T05:13:50;-2.70;99.90
3644;DHT22;1838;50.742;7.158;2023-02-28T05:16:16;-2.60;99.90
3644;DHT22;1838;50.742;7.158;2023-02-28T05:18:42;-2.50;99.90
3644;DHT22;1838;50.742;7.158;2023-02-28T05:21:40;-2.50;99.90
3644;DHT22;1838;50.742;7.158;2023-02-28T05:24:10;-2.40;99.90
3644;DHT22;1838;50.742;7.158;2023-02-28T05:26:39;-2.40;99.90
3644;DHT22;1838;50.742;7.158;2023-02-28T05:29:05;-2.40;99.90
3644;DHT22;1838;50.742;7.158;2023-02-28T05:31:30;-2.50;99.90
3644;DHT22;1838;50.742;7.158;2023-02-28T05:33:56;-2.50;99.90
3644;DHT22;1838;50.742;7.158;2023-02-28T05:36:21;-2.50;99.90
3644;DHT22;1838;50.742;7.158;2023-02-28T05:38:48;-2.50;99.90
3644;DHT22;1838;50.742;7.158;2023-02-28T05:41:14;-2.50;99.90
3644;DHT22;1838;50.742;7.158;2023-02-28T05:43:39;-2.50;99.90
3644;DHT22;1838;50.742;7.158;2023-02-28T05:46:10;-2.50;99.90
3644;DHT22;1838;50.742;7.158;2023-02-28T05:48:36;-2.50;99.90
3644;DHT22;1838;50.742;7.158;2023-02-28T05:51:04;-2.40;99.90
3644;DHT22;1838;50.742;7.158;2023-02-28T05:53:30;-2.40;99.90
3644;DHT22;1838;50.742;7.158;2023-02-28T05:55:56;-2.40;99.90
3644;DHT22;1838;50.742;7.158;2023-02-28T05:58:22;-2.40;99.90
3644;DHT22;1838;50.742;7.158;2023-02-28T06:00:48;-2.40;99.90
3644;DHT22;1838;50.742;7.158;2023-02-28T06:03:14;-2.50;99.90
3644;DHT22;1838;50.742;7.158;2023-02-28T06:05:39;-2.50;99.90
3644;DHT22;1838;50.742;7.158;2023-02-28T06:08:05;-2.50;99.90
3644;DHT22;1838;50.742;7.158;2023-02-28T06:10:35;-2.60;99.90
3644;DHT22;1838;50.742;7.158;2023-02-28T06:13:02;-2.60;99.90
3644;DHT22;1838;50.742;7.158;2023-02-28T06:15:28;-2.60;99.90
3644;DHT22;1838;50.742;7.158;2023-02-28T06:17:54;-2.60;99.90
3644;DHT22;1838;50.742;7.158;2023-02-28T06:20:22;-2.60;99.90
3644;DHT22;1838;50.742;7.158;2023-02-28T06:22:48;-2.60;99.90
3644;DHT22;1838;50.742;7.158;2023-02-28T06:25:15;-2.60;99.90
3644;DHT22;1838;50.742;7.158;2023-02-28T06:27:41;-2.60;99.90
3644;DHT22;1838;50.742;7.158;2023-02-28T06:30:07;-2.70;99.90
3644;DHT22;1838;50.742;7.158;2023-02-28T06:32:32;-2.70;99.90
3644;DHT22;1838;50.742;7.158;2023-02-28T06:34:58;-2.80;99.90
3644;DHT22;1838;50.742;7.158;2023-02-28T06:37:24;-2.80;99.90
3644;DHT22;1838;50.742;7.158;2023-02-28T06:39:51;-2.80;99.90
3644;DHT22;1838;50.742;7.158;2023-02-28T06:42:17;-2.90;99.90
3644;DHT22;1838;50.742;7.158;2023-02-28T06:44:42;-2.80;99.90
3644;DHT22;1838;50.742;7.158;2023-02-28T06:47:09;-2.90;99.90
3644;DHT22;1838;50.742;7.158;2023-02-28T06:49:35;-2.90;99.90
3644;DHT22;1838;50.742;7.158;2023-02-28T06:52:01;-2.90;99.90
3644;DHT22;1838;50.742;7.158;2023-02-28T06:54:27;-2.90;99.90
3644;DHT22;1838;50.742;7.158;2023-02-28T06:56:52;-2.90;99.90
3644;DHT22;1838;50.742;7.158;2023-02-28T06:59:19;-2.90;99.90
3644;DHT22;1838;50.742;7.158;2023-02-28T07:01:45;-2.90;99.90
3644;DHT22;1838;50.742;7.158;2023-02-28T07:04:10;-2.90;99.90
3644;DHT22;1838;50.742;7.158;2023-02-28T07:06:36;-2.90;99.90
3644;DHT22;1838;50.742;7.158;2023-02-28T07:09:02;-2.90;99.90
3644;DHT22;1838;50.742;7.158;2023-02-28T07:11:27;-2.90;99.90
3644;DHT22;1838;50.742;7.158;2023-02-28T07:13:56;-2.90;99.90
3644;DHT22;1838;50.742;7.158;2023-02-28T07:16:23;-2.80;99.90
3644;DHT22;1838;50.742;7.158;2023-02-28T07:18:51;-2.70;99.90
3644;DHT22;1838;50.742;7.158;2023-02-28T07:21:17;-2.50;99.90
3644;DHT22;1838;50.742;7.158;2023-02-28T07:23:43;-2.40;99.90
3644;DHT22;1838;50.742;7.158;2023-02-28T07:26:14;-2.20;99.90
3644;DHT22;1838;50.742;7.158;2023-02-28T07:28:45;-2.00;99.90
3644;DHT22;1838;50.742;7.158;2023-02-28T07:31:12;-1.90;99.90
3644;DHT22;1838;50.742;7.158;2023-02-28T07:33:39;-1.70;99.90
3644;DHT22;1838;50.742;7.158;2023-02-28T07:36:08;-1.60;99.90
3644;DHT22;1838;50.742;7.158;2023-02-28T07:38:35;-1.50;99.90
3644;DHT22;1838;50.742;7.158;2023-02-28T07:41:01;-1.30;99.90
3644;DHT22;1838;50.742;7.158;2023-02-28T07:43:30;-1.20;99.90
3644;DHT22;1838;50.742;7.158;2023-02-28T07:45:55;-1.00;99.90
3644;DHT22;1838;50.742;7.158;2023-02-28T07:48:21;-0.90;99.90
3644;DHT22;1838;50.742;7.158;2023-02-28T07:50:57;-0.80;99.90
3644;DHT22;1838;50.742;7.158;2023-02-28T07:53:23;-0.70;99.90
3644;DHT22;1838;50.742;7.158;2023-02-28T07:55:48;-0.60;99.90
3644;DHT22;1838;50.742;7.158;2023-02-28T07:58:14;-0.50;99.90
3644;DHT22;1838;50.742;7.158;2023-02-28T08:00:39;-0.40;99.90
3644;DHT22;1838;50.742;7.158;2023-02-28T08:03:05;-0.30;99.90
3644;DHT22;1838;50.742;7.158;2023-02-28T08:05:30;-0.20;99.90
3644;DHT22;1838;50.742;7.158;2023-02-28T08:07:56;-0.10;99.90
3644;DHT22;1838;50.742;7.158;2023-02-28T08:10:22;0.00;99.90
3644;DHT22;1838;50.742;7.158;2023-02-28T08:12:49;0.10;99.90
3644;DHT22;1838;50.742;7.158;2023-02-28T08:15:14;0.20;99.90
3644;DHT22;1838;50.742;7.158;2023-02-28T08:17:40;0.30;99.90
3644;DHT22;1838;50.742;7.158;2023-02-28T08:20:06;0.40;99.90
3644;DHT22;1838;50.742;7.158;2023-02-28T08:22:32;0.40;99.90
3644;DHT22;1838;50.742;7.158;2023-02-28T08:24:57;0.50;99.90
3644;DHT22;1838;50.742;7.158;2023-02-28T08:27:23;0.60;99.90
3644;DHT22;1838;50.742;7.158;2023-02-28T08:29:48;0.60;99.90
3644;DHT22;1838;50.742;7.158;2023-02-28T08:32:14;0.70;99.90
3644;DHT22;1838;50.742;7.158;2023-02-28T08:34:40;0.70;99.90
3644;DHT22;1838;50.742;7.158;2023-02-28T08:37:06;0.80;99.90
3644;DHT22;1838;50.742;7.158;2023-02-28T08:39:35;0.80;99.90
3644;DHT22;1838;50.742;7.158;2023-02-28T08:42:02;0.90;99.90
3644;DHT22;1838;50.742;7.158;2023-02-28T08:44:27;1.00;99.90
3644;DHT22;1838;50.742;7.158;2023-02-28T08:46:53;1.00;99.90
3644;DHT22;1838;50.742;7.158;2023-02-28T08:49:18;1.10;99.90
3644;DHT22;1838;50.742;7.158;2023-02-28T08:51:44;1.20;99.90
3644;DHT22;1838;50.742;7.158;2023-02-28T08:54:09;1.30;99.90
3644;DHT22;1838;50.742;7.158;2023-02-28T08:56:38;1.40;99.90
3644;DHT22;1838;50.742;7.158;2023-02-28T08:59:04;1.60;99.90
3644;DHT22;1838;50.742;7.158;2023-02-28T09:01:30;1.70;99.90
3644;DHT22;1838;50.742;7.158;2023-02-28T09:03:57;1.80;99.90
3644;DHT22;1838;50.742;7.158;2023-02-28T09:06:25;1.90;99.90
3644;DHT22;1838;50.742;7.158;2023-02-28T09:08:51;2.00;99.90
3644;DHT22;1838;50.742;7.158;2023-02-28T09:11:17;2.10;99.90
3644;DHT22;1838;50.742;7.158;2023-02-28T09:13:43;2.30;99.90
3644;DHT22;1838;50.742;7.158;2023-02-28T09:16:12;2.40;99.90
3644;DHT22;1838;50.742;7.158;2023-02-28T09:18:40;2.40;99.90
3644;DHT22;1838;50.742;7.158;2023-02-28T09:21:07;2.30;99.90
3644;DHT22;1838;50.742;7.158;2023-02-28T09:23:34;2.30;99.90
3644;DHT22;1838;50.742;7.158;2023-02-28T09:25:59;2.30;99.90
3644;DHT22;1838;50.742;7.158;2023-02-28T09:28:25;2.30;99.90
3644;DHT22;1838;50.742;7.158;2023-02-28T09:30:53;2.30;99.90
3644;DHT22;1838;50.742;7.158;2023-02-28T09:33:20;2.30;99.90
3644;DHT22;1838;50.742;7.158;2023-02-28T09:35:47;2.40;99.90
3644;DHT22;1838;50.742;7.158;2023-02-28T09:38:12;2.60;99.90
3644;DHT22;1838;50.742;7.158;2023-02-28T09:40:51;2.70;99.90
3644;DHT22;1838;50.742;7.158;2023-02-28T09:43:18;2.90;99.90
3644;DHT22;1838;50.742;7.158;2023-02-28T09:45:53;3.10;99.10
3644;DHT22;1838;50.742;7.158;2023-02-28T09:48:31;3.30;96.90
3644;DHT22;1838;50.742;7.158;2023-02-28T09:53:46;3.60;93.40
3644;DHT22;1838;50.742;7.158;2023-02-28T09:56:18;3.80;92.90
3644;DHT22;1838;50.742;7.158;2023-02-28T09:58:56;3.90;91.40
3644;DHT22;1838;50.742;7.158;2023-02-28T10:04:43;4.10;92.00
3644;DHT22;1838;50.742;7.158;2023-02-28T10:07:37;4.20;85.60
3644;DHT22;1838;50.742;7.158;2023-02-28T10:10:32;4.10;81.50
3644;DHT22;1838;50.742;7.158;2023-02-28T10:13:03;4.10;79.50
3644;DHT22;1838;50.742;7.158;2023-02-28T10:15:31;4.00;80.50
3644;DHT22;1838;50.742;7.158;2023-02-28T10:18:01;4.00;80.40
3644;DHT22;1838;50.742;7.158;2023-02-28T10:20:31;3.90;80.40
3644;DHT22;1838;50.742;7.158;2023-02-28T10:25:34;4.00;79.70
3644;DHT22;1838;50.742;7.158;2023-02-28T10:28:10;4.10;80.00
3644;DHT22;1838;50.742;7.158;2023-02-28T10:30:55;4.30;77.10
3644;DHT22;1838;50.742;7.158;2023-02-28T10:33:25;4.30;74.30
3644;DHT22;1838;50.742;7.158;2023-02-28T10:35:51;4.40;73.00
3644;DHT22;1838;50.742;7.158;2023-02-28T10:38:21;4.40;75.60
3644;DHT22;1838;50.742;7.158;2023-02-28T10:40:47;4.60;74.00
3644;DHT22;1838;50.742;7.158;2023-02-28T10:45:38;4.50;68.70
3644;DHT22;1838;50.742;7.158;2023-02-28T10:48:26;4.40;67.60
3644;DHT22;1838;50.742;7.158;2023-02-28T10:50:53;4.40;69.20
3644;DHT22;1838;50.742;7.158;2023-02-28T11:01:39;4.80;67.50
3644;DHT22;1838;50.742;7.158;2023-02-28T11:04:35;4.90;70.70
3644;DHT22;1838;50.742;7.158;2023-02-28T11:07:04;4.90;64.10
3644;DHT22;1838;50.742;7.158;2023-02-28T11:11:59;5.00;66.80
3644;DHT22;1838;50.742;7.158;2023-02-28T11:14:34;5.10;64.80
3644;DHT22;1838;50.742;7.158;2023-02-28T11:17:15;5.20;65.20
3644;DHT22;1838;50.742;7.158;2023-02-28T11:19:48;5.20;63.50
3644;DHT22;1838;50.742;7.158;2023-02-28T11:22:24;5.10;63.20
3644;DHT22;1838;50.742;7.158;2023-02-28T11:24:56;5.10;62.40
3644;DHT22;1838;50.742;7.158;2023-02-28T11:29:55;5.10;63.00
3644;DHT22;1838;50.742;7.158;2023-02-28T11:32:23;5.10;62.50
3644;DHT22;1838;50.742;7.158;2023-02-28T11:37:38;5.10;61.40
3644;DHT22;1838;50.742;7.158;2023-02-28T11:40:15;5.20;61.10
3644;DHT22;1838;50.742;7.158;2023-02-28T11:42:59;5.30;63.60
3644;DHT22;1838;50.742;7.158;2023-02-28T11:51:53;5.50;61.60
3644;DHT22;1838;50.742;7.158;2023-02-28T11:55:03;5.50;62.10
3644;DHT22;1838;50.742;7.158;2023-02-28T11:57:31;5.50;61.60
3644;DHT22;1838;50.742;7.158;2023-02-28T12:03:00;5.50;60.20
3644;DHT22;1838;50.742;7.158;2023-02-28T12:05:34;5.60;60.90
3644;DHT22;1838;50.742;7.158;2023-02-28T12:16:38;5.60;59.80
3644;DHT22;1838;50.742;7.158;2023-02-28T12:19:31;5.60;60.00
3644;DHT22;1838;50.742;7.158;2023-02-28T12:22:12;5.60;59.80
3644;DHT22;1838;50.742;7.158;2023-02-28T12:25:02;5.70;59.90
3644;DHT22;1838;50.742;7.158;2023-02-28T12:27:39;5.80;61.10
3644;DHT22;1838;50.742;7.158;2023-02-28T12:30:27;6.00;60.10
3644;DHT22;1838;50.742;7.158;2023-02-28T12:33:03;6.20;61.70
3644;DHT22;1838;50.742;7.158;2023-02-28T12:35:37;6.20;59.50
3644;DHT22;1838;50.742;7.158;2023-02-28T12:38:21;6.10;60.00
3644;DHT22;1838;50.742;7.158;2023-02-28T12:40:52;6.00;59.50
3644;DHT22;1838;50.742;7.158;2023-02-28T12:43:22;5.90;60.40
3644;DHT22;1838;50.742;7.158;2023-02-28T12:46:00;6.00;59.80
3644;DHT22;1838;50.742;7.158;2023-02-28T12:48:36;6.10;60.60
3644;DHT22;1838;50.742;7.158;2023-02-28T12:51:03;6.10;59.70
3644;DHT22;1838;50.742;7.158;2023-02-28T12:53:42;6.20;58.60
3644;DHT22;1838;50.742;7.158;2023-02-28T12:58:58;6.30;58.00
3644;DHT22;1838;50.742;7.158;2023-02-28T13:01:51;6.40;60.30
3644;DHT22;1838;50.742;7.158;2023-02-28T13:09:29;6.40;61.00
3644;DHT22;1838;50.742;7.158;2023-02-28T13:11:55;6.50;59.90
3644;DHT22;1838;50.742;7.158;2023-02-28T13:19:25;6.70;59.50
3644;DHT22;1838;50.742;7.158;2023-02-28T13:21:52;6.60;58.80
3644;DHT22;1838;50.742;7.158;2023-02-28T13:24:42;6.60;59.50
3644;DHT22;1838;50.742;7.158;2023-02-28T13:29:43;6.60;60.70
3644;DHT22;1838;50.742;7.158;2023-02-28T13:37:34;6.60;58.40
3644;DHT22;1838;50.742;7.158;2023-02-28T13:40:27;6.50;58.60
3644;DHT22;1838;50.742;7.158;2023-02-28T13:42:53;6.40;59.80
3644;DHT22;1838;50.742;7.158;2023-02-28T13:45:24;6.40;60.00
3644;DHT22;1838;50.742;7.158;2023-02-28T13:48:02;6.50;59.70
3644;DHT22;1838;50.742;7.158;2023-02-28T13:55:52;6.60;58.70
3644;DHT22;1838;50.742;7.158;2023-02-28T14:01:32;6.60;59.50
3644;DHT22;1838;50.742;7.158;2023-02-28T14:04:33;6.60;59.50
3644;DHT22;1838;50.742;7.158;2023-02-28T14:07:04;6.70;59.60
3644;DHT22;1838;50.742;7.158;2023-02-28T14:09:44;6.80;60.50
3644;DHT22;1838;50.742;7.158;2023-02-28T14:18:00;6.70;59.60
3644;DHT22;1838;50.742;7.158;2023-02-28T14:20:29;6.70;58.80
3644;DHT22;1838;50.742;7.158;2023-02-28T14:23:03;6.70;58.50
3644;DHT22;1838;50.742;7.158;2023-02-28T14:25:39;6.80;59.80
3644;DHT22;1838;50.742;7.158;2023-02-28T14:33:41;6.60;59.30
3644;DHT22;1838;50.742;7.158;2023-02-28T14:36:27;6.60;59.80
3644;DHT22;1838;50.742;7.158;2023-02-28T14:38:59;6.70;59.30
3644;DHT22;1838;50.742;7.158;2023-02-28T14:41:32;6.70;58.90
3644;DHT22;1838;50.742;7.158;2023-02-28T14:44:01;6.70;58.90
3644;DHT22;1838;50.742;7.158;2023-02-28T14:46:37;6.70;60.00
3644;DHT22;1838;50.742;7.158;2023-02-28T14:49:05;6.70;61.60
3644;DHT22;1838;50.742;7.158;2023-02-28T14:51:32;6.80;62.20
3644;DHT22;1838;50.742;7.158;2023-02-28T14:54:00;6.80;60.60
3644;DHT22;1838;50.742;7.158;2023-02-28T14:56:31;6.90;60.00
3644;DHT22;1838;50.742;7.158;2023-02-28T14:58:58;7.00;60.80
3644;DHT22;1838;50.742;7.158;2023-02-28T15:01:24;6.90;60.70
3644;DHT22;1838;50.742;7.158;2023-02-28T15:04:05;7.00;60.90
3644;DHT22;1838;50.742;7.158;2023-02-28T15:06:32;6.90;60.00
3644;DHT22;1838;50.742;7.158;2023-02-28T15:09:09;6.80;59.60
3644;DHT22;1838;50.742;7.158;2023-02-28T15:11:35;6.80;61.90
3644;DHT22;1838;50.742;7.158;2023-02-28T15:14:01;6.90;61.20
3644;DHT22;1838;50.742;7.158;2023-02-28T15:16:56;6.80;60.40
3644;DHT22;1838;50.742;7.158;2023-02-28T15:19:26;6.80;61.90
3644;DHT22;1838;50.742;7.158;2023-02-28T15:22:00;6.80;60.20
3644;DHT22;1838;50.742;7.158;2023-02-28T15:24:41;6.70;59.80
3644;DHT22;1838;50.742;7.158;2023-02-28T15:27:14;6.70;61.40
3644;DHT22;1838;50.742;7.158;2023-02-28T15:29:47;6.70;60.60
3644;DHT22;1838;50.742;7.158;2023-02-28T15:32:30;6.70;63.00
3644;DHT22;1838;50.742;7.158;2023-02-28T15:34:58;6.70;60.70
3644;DHT22;1838;50.742;7.158;2023-02-28T15:37:48;6.60;60.60
3644;DHT22;1838;50.742;7.158;2023-02-28T15:43:17;6.50;62.40
3644;DHT22;1838;50.742;7.158;2023-02-28T15:45:53;6.60;62.80
3644;DHT22;1838;50.742;7.158;2023-02-28T15:48:32;6.60;62.20
3644;DHT22;1838;50.742;7.158;2023-02-28T15:51:19;6.60;61.60
3644;DHT22;1838;50.742;7.158;2023-02-28T15:53:49;6.70;61.60
3644;DHT22;1838;50.742;7.158;2023-02-28T15:56:29;6.70;61.60
3644;DHT22;1838;50.742;7.158;2023-02-28T15:58:56;6.60;62.10
3644;DHT22;1838;50.742;7.158;2023-02-28T16:01:28;6.60;62.00
3644;DHT22;1838;50.742;7.158;2023-02-28T16:03:58;6.70;63.60
3644;DHT22;1838;50.742;7.158;2023-02-28T16:06:30;6.60;61.90
3644;DHT22;1838;50.742;7.158;2023-02-28T16:08:57;6.60;63.30
3644;DHT22;1838;50.742;7.158;2023-02-28T16:11:23;6.60;63.00
3644;DHT22;1838;50.742;7.158;2023-02-28T16:13:50;6.70;63.40
3644;DHT22;1838;50.742;7.158;2023-02-28T16:16:17;6.60;61.70
3644;DHT22;1838;50.742;7.158;2023-02-28T16:18:44;6.60;63.50
3644;DHT22;1838;50.742;7.158;2023-02-28T16:21:09;6.60;62.20
3644;DHT22;1838;50.742;7.158;2023-02-28T16:23:35;6.60;62.40
3644;DHT22;1838;50.742;7.158;2023-02-28T16:26:02;6.60;65.20
3644;DHT22;1838;50.742;7.158;2023-02-28T16:28:30;6.60;63.40
3644;DHT22;1838;50.742;7.158;2023-02-28T16:30:59;6.50;62.70
3644;DHT22;1838;50.742;7.158;2023-02-28T16:33:24;6.50;62.10
3644;DHT22;1838;50.742;7.158;2023-02-28T16:35:50;6.50;63.70
3644;DHT22;1838;50.742;7.158;2023-02-28T16:38:15;6.50;66.40
3644;DHT22;1838;50.742;7.158;2023-02-28T16:40:41;6.40;66.70
3644;DHT22;1838;50.742;7.158;2023-02-28T16:43:19;6.40;67.30
3644;DHT22;1838;50.742;7.158;2023-02-28T16:45:46;6.40;67.40
3644;DHT22;1838;50.742;7.158;2023-02-28T16:48:14;6.40;65.20
3644;DHT22;1838;50.742;7.158;2023-02-28T16:50:40;6.40;66.10
3644;DHT22;1838;50.742;7.158;2023-02-28T16:53:05;6.40;65.90
3644;DHT22;1838;50.742;7.158;2023-02-28T16:55:31;6.40;66.50
3644;DHT22;1838;50.742;7.158;2023-02-28T16:57:59;6.40;67.60
3644;DHT22;1838;50.742;7.158;2023-02-28T17:00:26;6.40;69.60
3644;DHT22;1838;50.742;7.158;2023-02-28T17:02:53;6.40;71.00
3644;DHT22;1838;50.742;7.158;2023-02-28T17:05:19;6.40;72.40
3644;DHT22;1838;50.742;7.158;2023-02-28T17:07:45;6.50;72.20
3644;DHT22;1838;50.742;7.158;2023-02-28T17:12:43;6.40;75.40
3644;DHT22;1838;50.742;7.158;2023-02-28T17:15:10;6.30;76.20
3644;DHT22;1838;50.742;7.158;2023-02-28T17:17:36;6.20;77.40
3644;DHT22;1838;50.742;7.158;2023-02-28T17:20:02;6.20;78.10
3644;DHT22;1838;50.742;7.158;2023-02-28T17:22:28;6.10;76.60
3644;DHT22;1838;50.742;7.158;2023-02-28T17:24:54;6.00;77.00
3644;DHT22;1838;50.742;7.158;2023-02-28T17:27:24;5.90;77.00
3644;DHT22;1838;50.742;7.158;2023-02-28T17:29:50;5.80;78.30
3644;DHT22;1838;50.742;7.158;2023-02-28T17:32:16;5.60;82.50
3644;DHT22;1838;50.742;7.158;2023-02-28T17:34:42;5.40;84.80
3644;DHT22;1838;50.742;7.158;2023-02-28T17:37:09;5.20;86.10
3644;DHT22;1838;50.742;7.158;2023-02-28T17:39:34;5.00;87.70
3644;DHT22;1838;50.742;7.158;2023-02-28T17:42:00;4.90;90.20
3644;DHT22;1838;50.742;7.158;2023-02-28T17:44:26;4.70;90.40
3644;DHT22;1838;50.742;7.158;2023-02-28T17:46:53;4.60;91.00
3644;DHT22;1838;50.742;7.158;2023-02-28T17:49:20;4.50;92.60
3644;DHT22;1838;50.742;7.158;2023-02-28T17:51:46;4.40;94.30
3644;DHT22;1838;50.742;7.158;2023-02-28T17:54:12;4.30;94.50
3644;DHT22;1838;50.742;7.158;2023-02-28T17:56:39;4.10;94.70
3644;DHT22;1838;50.742;7.158;2023-02-28T17:59:05;4.00;95.90
3644;DHT22;1838;50.742;7.158;2023-02-28T18:01:30;4.00;99.90
3644;DHT22;1838;50.742;7.158;2023-02-28T18:03:56;3.80;99.90
3644;DHT22;1838;50.742;7.158;2023-02-28T18:06:37;3.70;99.90
3644;DHT22;1838;50.742;7.158;2023-02-28T18:09:12;3.70;99.90
3644;DHT22;1838;50.742;7.158;2023-02-28T18:11:37;3.60;99.90
3644;DHT22;1838;50.742;7.158;2023-02-28T18:14:14;3.50;99.90
3644;DHT22;1838;50.742;7.158;2023-02-28T18:16:41;3.30;99.90
3644;DHT22;1838;50.742;7.158;2023-02-28T18:19:07;3.10;99.90
3644;DHT22;1838;50.742;7.158;2023-02-28T18:21:46;3.00;99.90
3644;DHT22;1838;50.742;7.158;2023-02-28T18:24:13;2.90;99.90
3644;DHT22;1838;50.742;7.158;2023-02-28T18:26:40;2.80;99.90
3644;DHT22;1838;50.742;7.158;2023-02-28T18:29:06;2.70;99.90
3644;DHT22;1838;50.742;7.158;2023-02-28T18:31:32;2.70;99.90
3644;DHT22;1838;50.742;7.158;2023-02-28T18:33:58;2.60;99.90
3644;DHT22;1838;50.742;7.158;2023-02-28T18:36:25;2.50;99.90
3644;DHT22;1838;50.742;7.158;2023-02-28T18:38:50;2.30;99.90
3644;DHT22;1838;50.742;7.158;2023-02-28T18:41:18;2.20;99.90
3644;DHT22;1838;50.742;7.158;2023-02-28T18:43:46;2.10;99.90
3644;DHT22;1838;50.742;7.158;2023-02-28T18:46:14;2.00;99.90
3644;DHT22;1838;50.742;7.158;2023-02-28T18:48:40;2.00;99.90
3644;DHT22;1838;50.742;7.158;2023-02-28T18:51:18;1.90;99.90
3644;DHT22;1838;50.742;7.158;2023-02-28T18:53:44;1.80;99.90
3644;DHT22;1838;50.742;7.158;2023-02-28T18:56:12;1.80;99.90